Creston, Louisiana
Current Conditions -  °F | °C
As of 11:15 PM on Friday 28 Nov 2014 (Local Time) from KIER Reporting Station
Overcast Overcast  
Wind Chill: 55°   Ceiling: 1100
Heat Index: 55°   Visibility: 10mi
Dew Point: 53°   Wind: 9mph
Humidity: 92%   Direction: 180°S
Pressure: 30.14"   Gusts: NA
Location:  32.1401°N, 92.9428°W
Report Text: KIER 290515Z AUTO 18008KT 10SM OVC011 13/12 A3014 RMK AO2 T01300117
Loading
Personal Weather Stations






























Interactive Weather Map New forecast layout! Learn more

10-Day Weather Forecast

Advertisements
Track Severe Weather on mobile